createdAt,value
2024-03-13T00:00:24.184Z,42.63
2024-03-13T00:02:52.106Z,42.72
2024-03-13T00:05:22.474Z,43.58
2024-03-13T00:07:52.140Z,43.77
2024-03-13T00:10:20.212Z,44.66
2024-03-13T00:12:47.698Z,46.82
2024-03-13T00:15:15.300Z,44.83
2024-03-13T00:17:46.549Z,44.08
2024-03-13T00:20:14.311Z,44.08
2024-03-13T00:22:42.356Z,43.61
2024-03-13T00:25:13.965Z,44.59
2024-03-13T00:27:43.718Z,45.32
2024-03-13T00:30:11.644Z,44.64
2024-03-13T00:32:39.757Z,42.75
2024-03-13T00:35:08.815Z,42.97
2024-03-13T00:37:37.156Z,43.13
2024-03-13T00:40:05.425Z,46.07
2024-03-13T00:42:33.800Z,44.84
2024-03-13T00:45:01.503Z,45.31
2024-03-13T00:47:31.986Z,43.34
2024-03-13T00:49:59.531Z,42.91
2024-03-13T00:52:29.269Z,45.83
2024-03-13T00:54:56.834Z,44.00
2024-03-13T00:57:24.378Z,44.27
2024-03-13T00:59:52.149Z,43.72
2024-03-13T01:02:22.273Z,45.36
2024-03-13T01:04:50.344Z,44.77
2024-03-13T01:07:18.478Z,46.36
2024-03-13T01:09:46.192Z,44.06
2024-03-13T01:12:14.962Z,44.77
2024-03-13T01:14:42.845Z,43.33
2024-03-13T01:17:11.925Z,44.94
2024-03-13T01:19:40.045Z,43.35
2024-03-13T01:22:11.952Z,44.30
2024-03-13T01:24:40.099Z,44.55
2024-03-13T01:27:07.837Z,45.94
2024-03-13T01:29:37.542Z,45.10
2024-03-13T01:32:06.394Z,45.97
2024-03-13T01:34:34.433Z,46.19
2024-03-13T01:37:21.234Z,45.06
2024-03-13T01:39:49.533Z,44.67
2024-03-13T01:42:35.582Z,44.87
2024-03-13T01:45:31.200Z,47.17
2024-03-13T01:48:20.196Z,46.42
2024-03-13T01:51:07.138Z,47.37
2024-03-13T01:53:54.361Z,47.07
2024-03-13T01:56:28.781Z,45.91
2024-03-13T01:59:04.899Z,45.78
2024-03-13T02:01:53.145Z,45.68
2024-03-13T02:04:22.149Z,44.64
2024-03-13T02:06:51.092Z,44.30
2024-03-13T02:09:19.746Z,45.07
2024-03-13T02:11:47.400Z,45.84
2024-03-13T02:14:16.758Z,46.64
2024-03-13T02:16:50.601Z,46.36
2024-03-13T02:19:19.650Z,46.42
2024-03-13T02:21:49.036Z,45.95
2024-03-13T02:24:18.509Z,45.68
2024-03-13T02:26:47.102Z,46.92
2024-03-13T02:29:15.276Z,46.63
2024-03-13T02:31:43.308Z,45.30
2024-03-13T02:34:11.471Z,47.99
2024-03-13T02:36:39.141Z,46.07
2024-03-13T02:39:07.236Z,46.49
2024-03-13T02:41:35.326Z,46.84
2024-03-13T02:44:03.739Z,47.26
2024-03-13T02:46:31.617Z,47.29
2024-03-13T02:48:59.411Z,46.76
2024-03-13T02:51:27.082Z,47.52
2024-03-13T02:53:55.072Z,47.12
2024-03-13T02:56:23.137Z,45.11
2024-03-13T02:58:50.883Z,44.80
2024-03-13T03:01:18.633Z,44.02
2024-03-13T03:03:46.509Z,44.36
2024-03-13T03:06:17.502Z,43.81
2024-03-13T03:08:46.241Z,46.12
2024-03-13T03:11:14.218Z,46.16
2024-03-13T03:13:42.195Z,46.84
2024-03-13T03:16:10.741Z,47.39
2024-03-13T03:18:38.522Z,46.51
2024-03-13T03:21:09.009Z,45.10
2024-03-13T03:23:36.704Z,44.57
2024-03-13T03:26:04.583Z,44.09
2024-03-13T03:28:32.358Z,43.65
2024-03-13T03:31:03.234Z,43.96
2024-03-13T03:33:31.273Z,44.76
2024-03-13T03:35:58.979Z,43.92
2024-03-13T03:38:30.093Z,44.68
2024-03-13T03:40:57.739Z,45.13
2024-03-13T03:43:27.401Z,45.14
2024-03-13T03:45:55.979Z,44.84
2024-03-13T03:48:24.174Z,46.65
2024-03-13T03:50:51.938Z,45.42
2024-03-13T03:53:20.034Z,44.73
2024-03-13T03:55:47.703Z,46.18
2024-03-13T03:58:15.576Z,46.17
2024-03-13T04:00:43.763Z,45.00
2024-03-13T04:03:11.325Z,46.90
2024-03-13T04:05:41.804Z,45.43
2024-03-13T04:08:10.384Z,45.19
2024-03-13T04:10:40.705Z,44.57
2024-03-13T04:13:08.799Z,44.63
2024-03-13T04:15:36.471Z,45.14
2024-03-13T04:18:05.177Z,45.32
2024-03-13T04:20:33.075Z,44.92
2024-03-13T04:23:00.771Z,44.59
2024-03-13T04:25:28.741Z,44.38
2024-03-13T04:27:56.976Z,44.96
2024-03-13T04:30:25.393Z,44.04
2024-03-13T04:32:52.947Z,45.95
2024-03-13T04:35:21.938Z,44.09
2024-03-13T04:37:51.550Z,44.72
2024-03-13T04:40:21.556Z,43.74
2024-03-13T04:42:49.340Z,43.32
2024-03-13T04:45:17.459Z,44.50
2024-03-13T04:47:45.439Z,42.71
2024-03-13T04:50:13.416Z,42.74
2024-03-13T04:52:41.204Z,42.70
2024-03-13T04:55:09.004Z,42.52
2024-03-13T04:57:36.770Z,42.35
2024-03-13T05:00:05.846Z,42.03
2024-03-13T05:02:36.311Z,41.62
2024-03-13T05:05:05.601Z,41.61
2024-03-13T05:07:33.371Z,41.04
2024-03-13T05:10:01.142Z,41.20
2024-03-13T05:12:36.296Z,40.52
2024-03-13T05:15:08.429Z,40.49
2024-03-13T05:17:36.610Z,40.13
2024-03-13T05:20:13.841Z,41.95
2024-03-13T05:22:41.585Z,39.87
2024-03-13T05:25:16.073Z,40.11
2024-03-13T05:27:43.802Z,40.51
2024-03-13T05:30:11.833Z,41.17
2024-03-13T05:32:39.743Z,40.77
2024-03-13T05:35:08.099Z,39.74
2024-03-13T05:37:37.039Z,40.51
2024-03-13T05:40:14.113Z,40.53
2024-03-13T05:42:43.430Z,40.01
2024-03-13T05:45:11.489Z,39.56
2024-03-13T05:47:40.791Z,40.48
2024-03-13T05:50:10.048Z,40.35
2024-03-13T05:52:37.902Z,39.71
2024-03-13T05:55:06.086Z,39.07
2024-03-13T05:57:33.967Z,39.78
2024-03-13T06:00:05.434Z,38.80
2024-03-13T06:02:43.052Z,38.71
2024-03-13T06:05:11.522Z,39.19
2024-03-13T06:07:40.163Z,38.59
2024-03-13T06:10:11.898Z,39.35
2024-03-13T06:12:40.449Z,39.41
2024-03-13T06:15:08.849Z,38.14
2024-03-13T06:17:36.960Z,38.32
2024-03-13T06:20:05.180Z,37.32
2024-03-13T06:22:32.808Z,38.10
2024-03-13T06:25:08.086Z,37.50
2024-03-13T06:27:37.345Z,37.22
2024-03-13T06:30:06.857Z,37.34
2024-03-13T06:32:34.575Z,37.03
2024-03-13T06:35:06.992Z,36.96
2024-03-13T06:37:35.168Z,36.94
2024-03-13T06:40:02.662Z,36.31
2024-03-13T06:42:31.273Z,36.55
2024-03-13T06:44:59.048Z,37.18
2024-03-13T06:47:27.089Z,36.62
2024-03-13T06:49:55.215Z,36.60
2024-03-13T06:52:23.023Z,36.43
2024-03-13T06:54:50.563Z,36.60
2024-03-13T06:57:18.247Z,36.73
2024-03-13T06:59:46.627Z,36.91
2024-03-13T07:02:18.931Z,36.43
2024-03-13T07:04:46.529Z,36.60
2024-03-13T07:07:14.153Z,36.15
2024-03-13T07:09:43.661Z,37.23
2024-03-13T07:12:13.023Z,36.76
2024-03-13T07:14:40.901Z,36.51
2024-03-13T07:17:08.759Z,36.19
2024-03-13T07:19:37.103Z,35.10
2024-03-13T07:22:05.309Z,35.60
2024-03-13T07:24:33.542Z,35.69
2024-03-13T07:27:01.529Z,35.68
2024-03-13T07:29:29.307Z,36.54
2024-03-13T07:31:57.652Z,35.49
2024-03-13T07:34:25.634Z,35.83
2024-03-13T07:36:53.846Z,35.76
2024-03-13T07:39:22.640Z,35.62
2024-03-13T07:41:50.492Z,35.50
2024-03-13T07:44:18.286Z,35.95
2024-03-13T07:46:45.818Z,36.10
2024-03-13T07:49:14.980Z,35.44
2024-03-13T07:51:43.529Z,35.11
2024-03-13T07:54:11.529Z,35.58
2024-03-13T07:56:40.496Z,36.34
2024-03-13T07:59:08.155Z,35.90
2024-03-13T08:01:44.820Z,35.67
2024-03-13T08:04:13.121Z,36.25
2024-03-13T09:07:24.347Z,33.42
2024-03-13T09:09:52.175Z,31.62
2024-03-13T09:12:20.044Z,33.17
2024-03-13T09:14:47.767Z,33.31
2024-03-13T09:17:15.349Z,33.09
2024-03-13T09:19:43.122Z,32.85
2024-03-13T09:22:13.498Z,32.72
2024-03-13T09:24:43.769Z,32.40
2024-03-13T09:27:12.413Z,31.69
2024-03-13T09:29:40.243Z,29.95
2024-03-13T09:32:08.090Z,30.24
2024-03-13T09:34:39.876Z,30.87
2024-03-13T09:37:11.173Z,29.57
2024-03-13T09:39:38.983Z,29.47
2024-03-13T09:42:23.726Z,29.12
2024-03-13T09:44:52.554Z,29.56
2024-03-13T09:47:21.563Z,29.06
2024-03-13T09:49:49.697Z,29.79
2024-03-13T09:52:18.264Z,30.09
2024-03-13T09:54:47.270Z,28.92
2024-03-13T09:57:15.859Z,30.77
2024-03-13T09:59:43.649Z,30.77
2024-03-13T10:02:20.366Z,29.27
2024-03-13T10:04:50.584Z,26.92
2024-03-13T10:07:23.048Z,28.68
2024-03-13T10:09:51.135Z,29.63
2024-03-13T10:12:22.705Z,29.07
2024-03-13T10:14:52.388Z,29.24
2024-03-13T10:17:24.492Z,28.18
2024-03-13T10:19:57.006Z,28.52
2024-03-13T10:22:27.423Z,28.72
2024-03-13T10:24:58.866Z,28.13
2024-03-13T10:27:26.798Z,28.53
2024-03-13T10:29:55.378Z,26.25
2024-03-13T10:41:48.106Z,26.52
2024-03-13T10:44:15.999Z,27.06
2024-03-13T10:46:43.779Z,28.01
2024-03-13T10:49:17.927Z,24.75
2024-03-13T10:51:45.829Z,25.73
2024-03-13T10:54:13.974Z,26.05
2024-03-13T10:56:41.624Z,27.22
2024-03-13T10:59:11.228Z,27.52
2024-03-13T11:01:39.253Z,26.73
2024-03-13T11:04:07.159Z,25.07
2024-03-13T11:06:34.655Z,25.47
2024-03-13T11:09:05.564Z,26.09
2024-03-13T11:11:36.909Z,24.71
2024-03-13T11:14:05.070Z,25.13
2024-03-13T11:16:34.834Z,26.93
2024-03-13T11:19:05.196Z,26.64
2024-03-13T11:22:01.355Z,23.97
2024-03-13T11:24:34.025Z,25.31
2024-03-13T11:27:10.151Z,24.81
2024-03-13T11:29:45.655Z,26.30
2024-03-13T11:32:15.264Z,26.04
2024-03-13T11:34:43.922Z,26.08
2024-03-13T11:37:13.312Z,25.29
2024-03-13T11:39:43.916Z,25.98
2024-03-13T11:42:16.321Z,25.72
2024-03-13T11:44:47.496Z,25.50
2024-03-13T11:47:17.994Z,26.07
2024-03-13T11:49:45.793Z,24.37
2024-03-13T11:52:16.998Z,24.33
2024-03-13T11:54:45.750Z,23.32
2024-03-13T11:57:15.620Z,25.39
2024-03-13T11:59:45.683Z,25.12
2024-03-13T12:02:37.041Z,23.58
2024-03-13T12:05:09.581Z,24.25
2024-03-13T12:07:45.007Z,23.61
2024-03-13T12:10:19.059Z,24.97
2024-03-13T12:12:48.349Z,24.84
2024-03-13T12:15:20.628Z,24.65
2024-03-13T12:17:52.228Z,23.54
2024-03-13T12:20:23.813Z,24.49
2024-03-13T12:22:52.218Z,24.59
2024-03-13T12:25:21.402Z,24.91
2024-03-13T12:27:54.169Z,24.65
2024-03-13T12:30:23.049Z,25.00
2024-03-13T12:33:00.191Z,24.77
2024-03-13T12:35:28.051Z,23.74
2024-03-13T12:37:59.602Z,24.25
2024-03-13T12:40:28.025Z,25.23
2024-03-13T12:42:56.089Z,24.70
2024-03-13T12:45:23.875Z,26.08
2024-03-13T12:47:51.642Z,26.07
2024-03-13T12:50:20.151Z,24.90
2024-03-13T12:52:48.166Z,25.78
2024-03-13T12:55:21.708Z,25.36
2024-03-13T12:57:50.153Z,25.76
2024-03-13T13:00:22.067Z,25.19
2024-03-13T13:02:53.422Z,25.22
2024-03-13T13:05:22.601Z,25.71
2024-03-13T13:07:54.020Z,25.50
2024-03-13T13:10:31.770Z,26.02
2024-03-13T13:13:00.877Z,25.30
2024-03-13T13:15:28.825Z,24.92
2024-03-13T13:17:56.906Z,24.06
2024-03-13T13:20:25.038Z,25.28
2024-03-13T13:22:54.222Z,25.08
2024-03-13T13:25:28.220Z,25.28
2024-03-13T13:27:58.819Z,24.66
2024-03-13T13:30:26.583Z,26.28
2024-03-13T13:32:56.197Z,25.65
2024-03-13T13:35:25.300Z,25.99
2024-03-13T13:37:54.302Z,26.02
2024-03-13T13:40:22.401Z,25.98
2024-03-13T13:42:54.020Z,25.41
2024-03-13T13:45:24.867Z,26.76
2024-03-13T13:47:55.127Z,26.62
2024-03-13T13:50:23.596Z,26.62
2024-03-13T13:52:51.332Z,26.96
2024-03-13T13:55:19.511Z,27.26
2024-03-13T13:57:52.312Z,26.88
2024-03-13T14:00:24.807Z,27.63
2024-03-13T14:02:57.053Z,27.42
2024-03-13T14:05:28.714Z,28.09
2024-03-13T14:08:00.198Z,28.48
2024-03-13T14:10:27.959Z,27.94
2024-03-13T14:12:58.604Z,27.93
2024-03-13T14:15:26.475Z,28.24
2024-03-13T14:17:54.921Z,28.24
2024-03-13T14:20:23.468Z,28.47
2024-03-13T14:22:56.384Z,28.48
2024-03-13T14:25:28.225Z,28.83
2024-03-13T14:27:56.904Z,28.88
2024-03-13T14:30:25.071Z,29.17
2024-03-13T14:32:53.585Z,29.05
2024-03-13T14:35:22.813Z,29.11
2024-03-13T14:37:51.486Z,29.42
2024-03-13T14:40:22.508Z,29.82
2024-03-13T14:42:50.713Z,30.04
2024-03-13T14:45:20.122Z,30.30
2024-03-13T14:47:48.674Z,29.59
2024-03-13T14:50:21.445Z,30.61
2024-03-13T14:53:03.105Z,30.15
2024-03-13T14:55:34.658Z,29.99
2024-03-13T14:58:03.008Z,29.95
2024-03-13T15:00:31.060Z,29.93
2024-03-13T15:03:00.154Z,30.51
2024-03-13T15:05:32.073Z,31.11
2024-03-13T15:08:02.687Z,30.35
2024-03-13T15:11:45.514Z,30.68
2024-03-13T15:14:41.191Z,30.30
2024-03-13T15:17:11.676Z,30.29
2024-03-13T15:19:44.182Z,31.35
2024-03-13T15:22:38.831Z,31.35
2024-03-13T15:25:08.089Z,30.66
2024-03-13T15:27:36.172Z,30.35
2024-03-13T15:30:04.942Z,31.03
2024-03-13T15:32:33.450Z,31.28
2024-03-13T15:35:08.804Z,31.76
2024-03-13T15:37:36.824Z,30.94
2024-03-13T15:40:12.981Z,31.76
2024-03-13T15:42:41.729Z,31.46
2024-03-13T15:45:11.977Z,30.97
2024-03-13T15:47:42.143Z,31.72
2024-03-13T15:50:20.329Z,31.35
2024-03-13T15:52:56.156Z,32.11
2024-03-13T15:55:23.851Z,32.10
2024-03-13T15:57:51.472Z,31.97
2024-03-13T16:00:24.759Z,31.61
2024-03-13T16:02:58.878Z,31.97
2024-03-13T16:05:28.841Z,31.97
2024-03-13T16:08:02.413Z,32.09
2024-03-13T16:10:30.195Z,31.93
2024-03-13T16:12:58.567Z,32.25
2024-03-13T16:15:28.293Z,32.02
2024-03-13T16:17:59.769Z,33.00
2024-03-13T16:20:27.576Z,32.43
2024-03-13T16:22:55.594Z,32.65
2024-03-13T16:25:23.530Z,33.18
2024-03-13T16:27:52.367Z,33.06
2024-03-13T16:30:20.996Z,33.26
2024-03-13T16:32:50.016Z,33.22
2024-03-13T16:35:18.350Z,32.46
2024-03-13T16:37:47.323Z,32.24
2024-03-13T16:40:19.491Z,32.26
2024-03-13T16:42:47.603Z,33.05
2024-03-13T16:45:19.721Z,32.84
2024-03-13T16:47:48.720Z,33.07
2024-03-13T16:50:17.654Z,33.66
2024-03-13T16:52:45.910Z,34.16
2024-03-13T16:55:14.202Z,33.54
2024-03-13T16:57:44.096Z,33.88
2024-03-13T17:00:17.127Z,34.22
2024-03-13T17:02:48.358Z,34.56
2024-03-13T17:05:17.918Z,34.71
2024-03-13T17:07:48.833Z,34.72
2024-03-13T17:10:20.386Z,34.72
2024-03-13T17:12:47.932Z,34.64
2024-03-13T17:15:16.003Z,34.90
2024-03-13T17:17:43.919Z,35.06
2024-03-13T17:20:11.805Z,34.70
2024-03-13T17:22:39.616Z,34.77
2024-03-13T17:25:07.541Z,35.34
2024-03-13T17:27:35.034Z,35.15
2024-03-13T17:30:03.148Z,35.28
2024-03-13T17:32:32.994Z,35.19
2024-03-13T17:35:02.084Z,38.08
2024-03-13T17:37:30.897Z,36.02
2024-03-13T17:39:59.056Z,35.76
2024-03-13T17:42:27.344Z,35.90
2024-03-13T17:44:58.209Z,36.27
2024-03-13T17:47:26.160Z,36.33
2024-03-13T17:49:54.200Z,36.75
2024-03-13T17:52:22.124Z,36.61
2024-03-13T17:54:53.693Z,37.38
2024-03-13T17:57:21.722Z,37.64
2024-03-13T17:59:49.779Z,37.69
2024-03-13T18:02:20.264Z,37.65
2024-03-13T18:04:48.148Z,37.53
2024-03-13T18:07:16.622Z,37.49
2024-03-13T18:09:44.371Z,37.75
2024-03-13T18:12:12.196Z,37.02
2024-03-13T18:14:39.873Z,37.19
2024-03-13T18:17:07.598Z,38.25
2024-03-13T18:19:35.660Z,37.40
2024-03-13T18:22:03.622Z,39.80
2024-03-13T18:24:31.248Z,37.96
2024-03-13T18:26:59.016Z,37.74
2024-03-13T18:29:26.574Z,38.38
2024-03-13T18:31:54.695Z,38.35
2024-03-13T18:34:22.419Z,37.88
2024-03-13T18:36:50.575Z,39.82
2024-03-13T18:39:19.705Z,39.65
2024-03-13T18:41:47.687Z,39.12
2024-03-13T18:44:15.463Z,39.14
2024-03-13T18:46:43.249Z,38.92
2024-03-13T18:49:12.177Z,41.86
2024-03-13T18:51:39.824Z,38.47
2024-03-13T18:54:07.761Z,38.21
2024-03-13T18:56:36.918Z,38.36
2024-03-13T18:59:05.912Z,39.00
2024-03-13T19:01:34.577Z,38.95
2024-03-13T19:04:02.345Z,39.39
2024-03-13T19:06:29.990Z,38.37
2024-03-13T19:08:57.783Z,38.94
2024-03-13T19:11:26.029Z,38.86
2024-03-13T19:13:54.783Z,39.37
2024-03-13T19:16:22.177Z,39.16
2024-03-13T19:18:53.586Z,40.34
2024-03-13T19:21:25.163Z,39.89
2024-03-13T19:23:54.044Z,39.35
2024-03-13T19:26:23.484Z,40.22
2024-03-13T19:28:53.934Z,39.39
2024-03-13T19:31:27.143Z,39.26
2024-03-13T19:34:02.176Z,39.67
2024-03-13T19:36:29.809Z,39.02
2024-03-13T19:38:59.433Z,39.60
2024-03-13T19:41:27.316Z,39.25
2024-03-13T19:43:55.790Z,40.32
2024-03-13T19:46:23.385Z,40.64
2024-03-13T19:48:51.011Z,39.78
2024-03-13T19:51:18.605Z,39.81
2024-03-13T19:53:46.199Z,39.81
2024-03-13T19:56:14.510Z,40.48
2024-03-13T19:58:41.830Z,43.45
2024-03-13T20:01:09.525Z,40.19
2024-03-13T20:03:38.644Z,40.31
2024-03-13T20:06:06.656Z,40.71
2024-03-13T20:08:36.417Z,40.62
2024-03-13T20:11:07.040Z,40.90
2024-03-13T20:13:35.082Z,40.80
2024-03-13T20:16:03.683Z,40.76
2024-03-13T20:18:31.270Z,42.69
2024-03-13T20:21:00.246Z,41.86
2024-03-13T20:23:28.359Z,41.22
2024-03-13T20:25:55.921Z,41.22
2024-03-13T20:28:23.466Z,40.90
2024-03-13T20:30:51.061Z,41.17
2024-03-13T20:33:19.584Z,41.68
2024-03-13T20:35:51.223Z,41.90
2024-03-13T20:38:18.942Z,42.00
2024-03-13T20:40:46.449Z,41.59
2024-03-13T20:43:13.882Z,41.50
2024-03-13T20:45:41.478Z,42.32
2024-03-13T20:48:11.697Z,42.19
2024-03-13T20:50:39.354Z,41.99
2024-03-13T20:53:07.449Z,42.29
2024-03-13T20:55:35.031Z,42.75
2024-03-13T20:58:02.786Z,41.93
2024-03-13T21:00:32.023Z,42.17
2024-03-13T21:02:59.904Z,43.38
2024-03-13T21:05:30.094Z,42.76
2024-03-13T21:07:59.901Z,42.80
2024-03-13T21:10:27.641Z,43.00
2024-03-13T21:12:55.934Z,42.85
2024-03-13T21:15:24.607Z,42.28
2024-03-13T21:17:52.049Z,43.64
2024-03-13T21:20:21.336Z,43.56
2024-03-13T21:22:48.894Z,44.21
2024-03-13T21:25:16.645Z,43.97
2024-03-13T21:27:45.732Z,42.88
2024-03-13T21:30:16.514Z,43.82
2024-03-13T21:32:44.467Z,44.19
2024-03-13T21:35:19.389Z,44.58
2024-03-13T21:37:48.420Z,45.01
2024-03-13T21:40:19.176Z,44.21
2024-03-13T21:42:47.187Z,45.62
2024-03-13T21:45:15.212Z,44.48
2024-03-13T21:47:46.223Z,45.08
2024-03-13T21:50:15.769Z,43.75
2024-03-13T21:52:43.521Z,46.10
2024-03-13T21:55:11.300Z,45.52
2024-03-13T21:57:43.797Z,44.88
2024-03-13T22:00:12.137Z,46.92
2024-03-13T22:02:40.002Z,47.16
2024-03-13T22:05:08.359Z,44.87
2024-03-13T22:07:35.911Z,47.44
2024-03-13T22:10:05.134Z,45.55
2024-03-13T22:12:33.280Z,45.20
2024-03-13T22:15:06.747Z,46.63
2024-03-13T22:17:34.714Z,45.63
2024-03-13T22:20:02.501Z,45.29
2024-03-13T22:22:31.713Z,46.16
2024-03-13T22:24:59.276Z,46.14
2024-03-13T22:27:27.189Z,49.64
2024-03-13T22:29:55.411Z,48.88
2024-03-13T22:32:23.252Z,45.93
2024-03-13T22:34:50.971Z,45.40
2024-03-13T22:37:18.808Z,47.45
2024-03-13T22:39:46.429Z,48.54
2024-03-13T22:42:14.096Z,47.94
2024-03-13T22:44:41.832Z,47.83
2024-03-13T22:47:09.577Z,47.99
2024-03-13T22:49:37.462Z,46.60
2024-03-13T22:52:05.430Z,49.98
2024-03-13T22:54:34.188Z,46.92
2024-03-13T22:57:01.960Z,46.83
2024-03-13T22:59:30.064Z,47.69
2024-03-13T23:01:58.657Z,46.41
2024-03-13T23:04:26.352Z,46.77
2024-03-13T23:06:53.870Z,46.70
2024-03-13T23:09:21.582Z,47.17
2024-03-13T23:11:51.982Z,47.40
2024-03-13T23:14:21.046Z,46.75
2024-03-13T23:16:48.666Z,46.62
2024-03-13T23:19:16.434Z,46.11
2024-03-13T23:21:44.292Z,48.09
2024-03-13T23:24:12.035Z,45.73
2024-03-13T23:26:42.094Z,46.46
2024-03-13T23:29:10.047Z,46.48
2024-03-13T23:31:43.241Z,47.91
2024-03-13T23:34:14.825Z,46.90
2024-03-13T23:36:43.641Z,45.79
2024-03-13T23:39:12.010Z,47.28
2024-03-13T23:41:42.326Z,46.27
2024-03-13T23:44:10.573Z,47.61
2024-03-13T23:46:39.904Z,46.57
2024-03-13T23:49:08.399Z,46.49
2024-03-13T23:51:38.793Z,46.90
2024-03-13T23:54:07.370Z,47.04
2024-03-13T23:56:35.071Z,46.98
2024-03-13T23:59:04.526Z,46.62
